Time;durP1;ratioP1;P1;durP2;ratioP2;P2;SDS_P1;SDS_P2;PMS_P1;PMS_P2;Temp;Humidity;BMP_temperature;BMP_pressure;BME280_temperature;BME280_humidity;BME280_pressure;Samples;Min_cycle;Max_cycle;Signal;HPM_P1;HPM_P2
2023/08/31 00:00:40;;;;;;;15.87;8.90;;;;;;;-145.18;100.00;46631.09;5034825;28;20041;-61
2023/08/31 00:03:06;;;;;;;16.80;8.53;;;;;;;-145.18;100.00;46636.94;5033523;28;20052;-61
2023/08/31 00:05:31;;;;;;;12.67;9.47;;;;;;;-145.18;100.00;46635.00;5032769;28;20501;-61
2023/08/31 00:07:57;;;;;;;19.43;9.60;;;;;;;-145.18;100.00;46635.00;5031617;28;20029;-61
2023/08/31 00:10:23;;;;;;;12.47;7.67;;;;;;;-145.18;100.00;46633.06;5032254;28;20079;-61
2023/08/31 00:12:49;;;;;;;14.13;7.63;;;;;;;-145.18;100.00;46635.00;5033090;28;20569;-69
2023/08/31 00:15:14;;;;;;;14.80;10.07;;;;;;;-145.18;100.00;46635.00;5031660;28;20044;-68
2023/08/31 00:17:40;;;;;;;10.37;7.03;;;;;;;-145.18;100.00;46631.09;5033063;28;20088;-68
2023/08/31 00:20:08;;;;;;;13.23;6.77;;;;;;;-145.18;100.00;46627.19;5031100;28;20120;-69
2023/08/31 00:22:33;;;;;;;13.27;8.53;;;;;;;-145.18;100.00;46633.06;5030553;28;20057;-69
2023/08/31 00:24:58;;;;;;;14.63;9.47;;;;;;;-145.18;100.00;46633.06;5032223;28;20045;-69
2023/08/31 00:27:24;;;;;;;18.33;10.50;;;;;;;-145.18;100.00;46631.09;5031767;28;20053;-68
2023/08/31 00:29:50;;;;;;;14.97;8.03;;;;;;;-145.18;100.00;46629.13;5032754;28;20076;-69
2023/08/31 00:32:18;;;;;;;14.80;8.77;;;;;;;-145.18;100.00;46627.19;5032211;28;20078;-69
2023/08/31 00:34:44;;;;;;;14.33;6.90;;;;;;;-145.18;100.00;46631.09;5030230;28;20038;-69
2023/08/31 00:37:09;;;;;;;9.23;6.63;;;;;;;-145.18;100.00;46631.09;5030361;28;20414;-69
2023/08/31 00:39:34;;;;;;;11.87;8.60;;;;;;;-145.18;100.00;46631.09;5032127;28;20124;-68
2023/08/31 00:42:00;;;;;;;19.57;8.80;;;;;;;-145.18;100.00;46629.13;5032048;28;20500;-69
2023/08/31 00:44:26;;;;;;;12.00;7.47;;;;;;;-145.18;100.00;46633.06;5031709;28;20090;-69
2023/08/31 00:46:52;;;;;;;18.63;11.63;;;;;;;-145.18;100.00;46631.09;5030615;28;20033;-69
2023/08/31 00:49:18;;;;;;;12.87;9.47;;;;;;;-145.18;100.00;46631.09;5030239;28;20045;-69
2023/08/31 00:51:48;;;;;;;17.27;8.27;;;;;;;-145.18;100.00;46629.13;5032511;28;20038;-69
2023/08/31 00:54:16;;;;;;;16.57;9.57;;;;;;;-145.18;100.00;46631.09;5032191;28;20044;-69
2023/08/31 00:56:41;;;;;;;15.17;8.83;;;;;;;-145.18;100.00;46631.09;5032108;28;20401;-69
2023/08/31 00:59:06;;;;;;;13.20;7.80;;;;;;;-145.18;100.00;46633.06;5031842;28;20034;-69
2023/08/31 01:01:55;;;;;;;14.93;9.67;;;;;;;-145.18;100.00;46633.06;5030029;28;20025;-69
2023/08/31 01:04:24;;;;;;;15.47;9.17;;;;;;;-145.18;100.00;46633.06;5028428;28;20039;-69
2023/08/31 01:07:06;;;;;;;18.33;10.17;;;;;;;-145.18;100.00;46633.06;5030919;28;20562;-69
2023/08/31 01:09:40;;;;;;;15.67;10.53;;;;;;;-145.18;100.00;46629.13;5029146;28;20170;-69
2023/08/31 01:12:10;;;;;;;19.33;11.67;;;;;;;-145.18;100.00;46633.06;5030089;28;20021;-69
2023/08/31 01:14:44;;;;;;;17.00;10.20;;;;;;;-145.18;100.00;46627.19;5030769;28;20024;-71
2023/08/31 01:17:12;;;;;;;16.40;10.47;;;;;;;-145.18;100.00;46629.13;5031171;28;20025;-72
2023/08/31 01:19:52;;;;;;;19.33;10.73;;;;;;;-145.18;100.00;46631.09;5030795;28;20029;-72
2023/08/31 01:22:51;;;;;;;17.37;10.33;;;;;;;-145.18;100.00;46627.19;5030561;28;20091;-61
2023/08/31 01:25:17;;;;;;;19.60;10.43;;;;;;;-145.18;100.00;46629.13;5027011;28;20041;-61
2023/08/31 01:27:43;;;;;;;17.73;11.17;;;;;;;-145.18;100.00;46625.22;5030475;28;20045;-60
2023/08/31 01:30:09;;;;;;;19.67;10.97;;;;;;;-145.18;100.00;46629.13;5031125;28;20061;-61
2023/08/31 01:32:34;;;;;;;17.53;10.17;;;;;;;-145.18;100.00;46627.19;5041699;28;20033;-61
2023/08/31 01:35:03;;;;;;;15.10;9.70;;;;;;;-145.18;100.00;46629.13;5028884;28;20454;-61
2023/08/31 01:37:43;;;;;;;17.57;10.70;;;;;;;-145.18;100.00;46625.22;5025442;28;20039;-61
2023/08/31 01:40:17;;;;;;;15.50;11.10;;;;;;;-145.18;100.00;46660.41;5030532;28;20512;-61
2023/08/31 01:42:44;;;;;;;19.30;15.40;;;;;;;-145.18;100.00;46621.31;5030282;28;20025;-61
2023/08/31 01:45:19;;;;;;;19.63;13.90;;;;;;;-145.18;100.00;46621.31;5027621;28;20367;-61
2023/08/31 01:47:45;;;;;;;22.07;15.03;;;;;;;-145.18;100.00;46621.31;5030281;28;20024;-60
2023/08/31 01:50:11;;;;;;;20.37;15.27;;;;;;;-145.18;100.00;46658.44;5030364;28;20033;-60
2023/08/31 01:52:36;;;;;;;21.63;15.43;;;;;;;-145.18;100.00;46658.44;5029757;28;20104;-61
2023/08/31 01:55:03;;;;;;;20.13;13.40;;;;;;;-145.18;100.00;46623.28;5039969;28;20121;-61
2023/08/31 01:57:28;;;;;;;15.03;10.93;;;;;;;-145.18;100.00;46621.31;5031176;28;20041;-61
2023/08/31 01:59:54;;;;;;;13.97;9.80;;;;;;;-145.18;100.00;46623.28;5027633;28;20033;-61
2023/08/31 02:02:19;;;;;;;19.53;9.77;;;;;;;-145.18;100.00;46623.28;5029863;28;20048;-61
2023/08/31 02:04:46;;;;;;;22.80;13.03;;;;;;;-145.18;100.00;46623.28;5030608;28;20072;-61
2023/08/31 02:07:11;;;;;;;23.13;14.93;;;;;;;-145.18;100.00;46621.31;5030890;28;20017;-61
2023/08/31 02:09:37;;;;;;;21.00;14.87;;;;;;;-145.18;100.00;46623.28;5028140;28;20067;-61
2023/08/31 02:12:02;;;;;;;22.30;15.07;;;;;;;-145.18;100.00;46625.22;5030240;28;20033;-61
2023/08/31 02:14:29;;;;;;;21.17;12.43;;;;;;;-145.18;100.00;46621.31;5034775;28;20037;-61
2023/08/31 02:16:55;;;;;;;25.77;17.77;;;;;;;-145.18;100.00;46621.31;5034531;28;20493;-61
2023/08/31 02:19:20;;;;;;;22.37;13.97;;;;;;;-145.18;100.00;46619.38;5033406;28;20060;-61
2023/08/31 02:21:45;;;;;;;27.70;19.57;;;;;;;-145.18;100.00;46621.31;5034255;28;20033;-61
2023/08/31 02:24:11;;;;;;;23.57;13.83;;;;;;;-145.18;100.00;46625.22;5032032;28;20037;-60
2023/08/31 02:26:37;;;;;;;19.67;15.00;;;;;;;-145.18;100.00;46619.38;5034411;28;20440;-61
2023/08/31 02:29:03;;;;;;;26.13;18.10;;;;;;;-145.18;100.00;46621.31;5034440;28;20025;-61
2023/08/31 02:31:28;;;;;;;24.57;15.53;;;;;;;-145.18;100.00;46621.31;5034840;28;20041;-61
2023/08/31 02:33:53;;;;;;;23.43;17.87;;;;;;;-145.18;100.00;46621.31;5034322;28;20385;-61
2023/08/31 02:36:20;;;;;;;26.53;16.17;;;;;;;-145.18;100.00;46623.28;5032460;28;20036;-61
2023/08/31 02:38:46;;;;;;;28.83;19.40;;;;;;;-145.18;100.00;46621.31;5032839;28;20083;-61
2023/08/31 02:41:11;;;;;;;26.87;15.03;;;;;;;-145.18;100.00;46619.38;5032142;28;20021;-60
2023/08/31 02:43:37;;;;;;;22.30;16.67;;;;;;;-145.18;100.00;46625.22;5032239;28;20044;-61
2023/08/31 02:46:03;;;;;;;23.17;14.93;;;;;;;-145.18;100.00;46623.28;5033390;28;20030;-61
2023/08/31 02:48:29;;;;;;;24.37;15.60;;;;;;;-145.18;100.00;46621.31;5033522;28;20405;-60
2023/08/31 02:50:57;;;;;;;29.40;15.17;;;;;;;-145.18;100.00;46621.31;5031377;28;20389;-61
2023/08/31 02:53:23;;;;;;;22.10;14.17;;;;;;;-145.18;100.00;46621.31;5032953;28;20049;-61
2023/08/31 02:55:50;;;;;;;28.83;17.57;;;;;;;-145.18;100.00;46617.41;5033115;28;20064;-60
2023/08/31 02:58:16;;;;;;;22.70;15.40;;;;;;;-145.18;100.00;46619.38;5032902;28;20109;-61
2023/08/31 03:00:42;;;;;;;25.13;15.23;;;;;;;-145.18;100.00;46617.41;5033332;28;20460;-61
2023/08/31 03:03:08;;;;;;;28.13;15.30;;;;;;;-145.18;100.00;46619.38;5032608;28;20401;-60
2023/08/31 03:05:34;;;;;;;26.30;16.27;;;;;;;-145.18;100.00;46621.31;5032859;28;20049;-60
2023/08/31 03:07:59;;;;;;;25.63;15.27;;;;;;;-145.18;100.00;46627.19;5031327;28;20120;-61
2023/08/31 03:10:25;;;;;;;25.57;16.37;;;;;;;-145.18;100.00;46619.38;5033079;28;20049;-60
2023/08/31 03:12:50;;;;;;;26.27;15.37;;;;;;;-145.18;100.00;46623.28;5032533;28;20095;-60
2023/08/31 03:15:15;;;;;;;27.63;15.63;;;;;;;-145.18;100.00;46619.38;5031538;28;20041;-61
2023/08/31 03:17:41;;;;;;;23.23;15.03;;;;;;;-145.18;100.00;46621.31;5030580;28;20045;-61
2023/08/31 03:20:07;;;;;;;24.03;14.70;;;;;;;-145.18;100.00;46625.22;5032490;28;20040;-60
2023/08/31 03:22:32;;;;;;;21.90;14.00;;;;;;;-145.18;100.00;46619.38;5032560;28;20040;-61
2023/08/31 03:24:58;;;;;;;25.40;14.70;;;;;;;-145.18;100.00;46627.19;5033331;28;20033;-61
2023/08/31 03:27:24;;;;;;;26.87;14.17;;;;;;;-145.18;100.00;46625.22;5031467;28;20087;-60
2023/08/31 03:29:50;;;;;;;24.23;13.73;;;;;;;-145.18;100.00;46625.22;5033448;28;20053;-61
2023/08/31 03:32:15;;;;;;;22.93;13.87;;;;;;;-145.18;100.00;46621.31;5030594;28;20065;-61
2023/08/31 03:34:40;;;;;;;24.23;12.97;;;;;;;-145.18;100.00;46623.28;5032318;28;20378;-61
2023/08/31 03:37:06;;;;;;;23.60;14.20;;;;;;;-145.18;100.00;46621.31;5036528;28;20048;-61
2023/08/31 03:39:31;;;;;;;21.17;13.73;;;;;;;-145.18;100.00;46619.38;5029860;28;20040;-61
2023/08/31 03:41:57;;;;;;;25.53;14.43;;;;;;;-145.18;100.00;46621.31;5032805;28;20108;-63
2023/08/31 03:44:22;;;;;;;23.50;14.53;;;;;;;-145.18;100.00;46619.38;5032734;28;20034;-61
2023/08/31 03:46:48;;;;;;;29.60;16.17;;;;;;;-145.18;100.00;46621.31;5030583;28;20495;-61
2023/08/31 03:49:13;;;;;;;22.80;14.87;;;;;;;-145.18;100.00;46621.31;5029080;28;20150;-61
2023/08/31 03:51:38;;;;;;;23.33;15.20;;;;;;;-145.18;100.00;46619.38;5029093;28;20582;-60
2023/08/31 03:54:04;;;;;;;23.97;15.40;;;;;;;-145.18;100.00;46621.31;5030429;28;20025;-61
2023/08/31 03:56:29;;;;;;;24.37;15.20;;;;;;;-145.18;100.00;46621.31;5031243;28;20025;-61
2023/08/31 03:58:55;;;;;;;25.63;15.53;;;;;;;-145.18;100.00;46621.31;5030265;28;20512;-60
2023/08/31 04:01:20;;;;;;;24.93;16.43;;;;;;;-145.18;100.00;46619.38;5030301;28;20030;-60
2023/08/31 04:03:45;;;;;;;26.20;16.13;;;;;;;-145.18;100.00;46621.31;5041534;28;20033;-60
2023/08/31 04:06:11;;;;;;;28.77;16.37;;;;;;;-145.18;100.00;46621.31;5029857;28;20057;-60
2023/08/31 04:08:37;;;;;;;24.07;15.73;;;;;;;-145.18;100.00;46619.38;5030074;28;21504;-60
2023/08/31 04:11:03;;;;;;;28.80;16.50;;;;;;;-145.18;100.00;46621.31;5031644;28;20029;-61
2023/08/31 04:13:28;;;;;;;22.27;15.50;;;;;;;-145.18;100.00;46621.31;5030185;28;20036;-60
2023/08/31 04:15:54;;;;;;;20.80;15.67;;;;;;;-145.18;100.00;46619.38;5036863;28;20037;-60
2023/08/31 04:18:19;;;;;;;22.77;15.27;;;;;;;-145.18;100.00;46621.31;5029534;28;20033;-61
2023/08/31 04:20:52;;;;;;;25.87;15.83;;;;;;;-145.18;100.00;46623.28;5032528;28;20052;-60
2023/08/31 04:23:19;;;;;;;28.53;16.37;;;;;;;-145.18;100.00;46623.28;5030584;28;20025;-60
2023/08/31 04:25:45;;;;;;;24.97;16.90;;;;;;;-145.18;100.00;46617.41;5032118;28;20025;-61
2023/08/31 04:28:10;;;;;;;29.53;18.33;;;;;;;-145.18;100.00;46625.22;5032166;28;20022;-61
2023/08/31 04:30:36;;;;;;;31.37;17.70;;;;;;;-145.18;100.00;46621.31;5031937;28;20032;-61
2023/08/31 04:33:01;;;;;;;33.43;17.67;;;;;;;-145.18;100.00;46625.22;5031362;28;20468;-61
2023/08/31 04:35:27;;;;;;;26.37;16.30;;;;;;;-145.18;100.00;46623.28;5028182;28;20090;-61
2023/08/31 04:37:52;;;;;;;25.37;17.03;;;;;;;-145.18;100.00;46621.31;5031154;28;20478;-61
2023/08/31 04:40:17;;;;;;;24.63;15.87;;;;;;;-145.18;100.00;46617.41;5032397;28;20090;-61
2023/08/31 04:42:43;;;;;;;23.53;15.10;;;;;;;-145.18;100.00;46623.28;5031384;28;20029;-61
2023/08/31 04:45:10;;;;;;;23.40;14.43;;;;;;;-145.18;100.00;46619.38;5031926;28;20572;-61
2023/08/31 04:47:35;;;;;;;29.50;14.37;;;;;;;-145.18;100.00;46625.22;5031352;28;20485;-61
2023/08/31 04:50:01;;;;;;;21.07;14.43;;;;;;;-145.18;100.00;46625.22;5031999;28;20033;-61
2023/08/31 04:52:26;;;;;;;23.97;14.33;;;;;;;-145.18;100.00;46623.28;5031871;28;20443;-61
2023/08/31 04:54:51;;;;;;;20.63;13.73;;;;;;;-145.18;100.00;46621.31;5031404;28;20560;-61
2023/08/31 04:57:17;;;;;;;23.87;13.83;;;;;;;-145.18;100.00;46621.31;5031847;28;20025;-61
2023/08/31 04:59:42;;;;;;;19.90;13.17;;;;;;;-145.18;100.00;46617.41;5027556;28;20030;-61
2023/08/31 05:02:07;;;;;;;22.83;14.43;;;;;;;-145.18;100.00;46617.41;5027299;28;20485;-61
2023/08/31 05:04:33;;;;;;;23.97;13.87;;;;;;;-145.18;100.00;46627.19;5028856;28;20057;-61
2023/08/31 05:06:58;;;;;;;19.80;13.27;;;;;;;-145.18;100.00;46623.28;5028301;28;20045;-61
2023/08/31 05:09:25;;;;;;;20.77;13.27;;;;;;;-145.18;100.00;46623.28;5030924;28;20052;-61
2023/08/31 05:11:50;;;;;;;20.93;13.23;;;;;;;-145.18;100.00;46625.22;5027436;28;20029;-61
2023/08/31 05:14:15;;;;;;;19.20;11.90;;;;;;;-145.18;100.00;46625.22;5028623;28;20048;-61
2023/08/31 05:16:41;;;;;;;18.83;11.63;;;;;;;-145.18;100.00;46625.22;5027036;28;20386;-61
2023/08/31 05:19:07;;;;;;;23.60;11.53;;;;;;;-145.18;100.00;46623.28;5029822;28;20057;-61
2023/08/31 05:21:32;;;;;;;17.43;11.53;;;;;;;-145.18;100.00;46627.19;5025666;28;20025;-61
2023/08/31 05:23:58;;;;;;;16.43;11.40;;;;;;;-145.18;100.00;46623.28;5044877;28;20079;-61
2023/08/31 05:26:23;;;;;;;17.00;10.83;;;;;;;-145.18;100.00;46625.22;5026669;28;20033;-61
2023/08/31 05:28:48;;;;;;;15.77;10.57;;;;;;;-145.18;100.00;46623.28;5005442;28;20041;-61
2023/08/31 05:31:15;;;;;;;19.30;10.97;;;;;;;-145.18;100.00;46623.28;5041317;28;20061;-61
2023/08/31 05:33:41;;;;;;;21.83;11.53;;;;;;;-145.18;100.00;46623.28;5026093;28;20036;-61
2023/08/31 05:36:06;;;;;;;22.27;11.13;;;;;;;-145.18;100.00;46623.28;5030817;28;20045;-61
2023/08/31 05:38:31;;;;;;;15.77;10.63;;;;;;;-145.18;100.00;46627.19;5028469;28;20038;-61
2023/08/31 05:41:09;;;;;;;16.07;10.60;;;;;;;-145.18;100.00;46631.09;5029761;28;20044;-61
2023/08/31 05:43:36;;;;;;;17.00;9.93;;;;;;;-145.18;100.00;46627.19;5045983;28;20033;-61
2023/08/31 05:46:02;;;;;;;20.90;11.13;;;;;;;-145.18;100.00;46623.28;5021729;28;20053;-61
2023/08/31 05:48:27;;;;;;;13.37;9.40;;;;;;;-145.18;100.00;46629.13;5019226;28;20473;-60
2023/08/31 05:50:54;;;;;;;15.47;9.63;;;;;;;-145.18;100.00;46627.19;5019492;28;20053;-61
2023/08/31 05:53:19;;;;;;;16.37;10.50;;;;;;;-145.18;100.00;46621.31;5026204;28;20036;-61
2023/08/31 05:55:45;;;;;;;21.13;11.13;;;;;;;-145.18;100.00;46629.13;5019682;28;20037;-61
2023/08/31 05:58:11;;;;;;;17.03;10.37;;;;;;;-145.18;100.00;46631.09;5025463;28;20061;-61
2023/08/31 06:00:36;;;;;;;17.80;10.60;;;;;;;-145.18;100.00;46627.19;5018437;28;20092;-61
2023/08/31 06:03:04;;;;;;;19.10;10.60;;;;;;;-145.18;100.00;46625.22;5023198;28;20033;-61
2023/08/31 06:05:31;;;;;;;19.10;9.77;;;;;;;-145.18;100.00;46625.22;5017179;28;20097;-61
2023/08/31 06:07:57;;;;;;;18.20;10.83;;;;;;;-145.18;100.00;46627.19;5023639;28;20092;-61
2023/08/31 06:10:23;;;;;;;18.33;10.53;;;;;;;-145.18;100.00;46629.13;5025939;28;20037;-61
2023/08/31 06:12:49;;;;;;;16.70;10.93;;;;;;;-145.18;100.00;46633.06;5025309;28;20037;-61
2023/08/31 06:15:15;;;;;;;20.77;10.50;;;;;;;-145.18;100.00;46631.09;5012377;28;20053;-61
2023/08/31 06:17:41;;;;;;;19.80;9.67;;;;;;;-145.18;100.00;46629.13;5018860;28;20481;-61
2023/08/31 06:20:08;;;;;;;18.13;10.50;;;;;;;-145.18;100.00;46629.13;5020713;28;20030;-62
2023/08/31 06:22:34;;;;;;;23.30;10.97;;;;;;;-145.18;100.00;46633.06;5025150;28;20040;-61
2023/08/31 06:25:00;;;;;;;18.53;10.83;;;;;;;-145.18;100.00;46631.09;5021082;28;20026;-61
2023/08/31 06:27:25;;;;;;;22.83;10.43;;;;;;;-145.18;100.00;46631.09;5025306;28;20030;-61
2023/08/31 06:29:51;;;;;;;18.80;9.73;;;;;;;-145.18;100.00;46627.19;5024933;28;20470;-60
2023/08/31 06:32:18;;;;;;;20.17;11.03;;;;;;;-145.18;100.00;46627.19;5023497;28;20153;-57
2023/08/31 06:34:44;;;;;;;19.83;11.00;;;;;;;-145.18;100.00;46625.22;5026242;28;20663;-61
2023/08/31 06:37:09;;;;;;;21.07;11.37;;;;;;;-145.18;100.00;46623.28;5028396;28;20065;-61
2023/08/31 06:39:35;;;;;;;16.83;10.70;;;;;;;-145.18;100.00;46629.13;5024942;28;20040;-61
2023/08/31 06:42:02;;;;;;;18.37;10.30;;;;;;;-145.18;100.00;46635.00;5026367;28;20473;-61
2023/08/31 06:44:29;;;;;;;19.10;10.70;;;;;;;-145.18;100.00;46633.06;5029342;28;20511;-61
2023/08/31 06:46:54;;;;;;;17.13;10.67;;;;;;;-145.18;100.00;46627.19;5031017;28;20053;-61
2023/08/31 06:49:20;;;;;;;17.10;10.67;;;;;;;-145.18;100.00;46627.19;5030643;28;20068;-61
2023/08/31 06:51:45;;;;;;;17.83;10.87;;;;;;;-145.18;100.00;46625.22;5031325;28;20080;-61
2023/08/31 06:54:10;;;;;;;17.83;10.53;;;;;;;-145.18;100.00;46627.19;5031100;28;20159;-61
2023/08/31 06:56:36;;;;;;;19.50;10.03;;;;;;;-145.18;100.00;46629.13;5047303;28;20037;-61
2023/08/31 06:59:02;;;;;;;18.50;10.63;;;;;;;-145.18;100.00;46625.22;5028611;28;20069;-61
2023/08/31 07:01:29;;;;;;;21.60;10.17;;;;;;;-145.18;100.00;46627.19;5026049;28;20397;-61
2023/08/31 07:03:54;;;;;;;17.43;10.10;;;;;;;-145.18;100.00;46629.13;5028907;28;20042;-61
2023/08/31 07:06:20;;;;;;;14.43;9.87;;;;;;;-145.18;100.00;46631.09;5014696;28;20054;-61
2023/08/31 07:08:47;;;;;;;21.00;9.97;;;;;;;-145.18;100.00;46627.19;5028651;28;20071;-61
2023/08/31 07:11:12;;;;;;;18.53;9.47;;;;;;;-145.18;100.00;46631.09;5022971;28;20060;-61
2023/08/31 07:13:38;;;;;;;16.97;10.07;;;;;;;-145.18;100.00;46627.19;5015642;28;20081;-61
2023/08/31 07:16:04;;;;;;;19.10;9.93;;;;;;;-145.18;100.00;46627.19;5024822;28;20068;-61
2023/08/31 07:18:30;;;;;;;16.57;10.40;;;;;;;-145.18;100.00;46629.13;5028835;28;20033;-61
2023/08/31 07:20:55;;;;;;;16.10;9.43;;;;;;;-145.18;100.00;46633.06;5023194;28;20056;-61
2023/08/31 07:23:20;;;;;;;13.67;9.43;;;;;;;-145.18;100.00;46629.13;5018365;28;20037;-61
2023/08/31 07:25:46;;;;;;;15.73;9.87;;;;;;;-145.18;100.00;46633.06;5034034;28;20393;-61
2023/08/31 07:28:12;;;;;;;13.77;9.13;;;;;;;-145.18;100.00;46629.13;5033442;28;20032;-61
2023/08/31 07:30:37;;;;;;;14.23;9.93;;;;;;;-145.18;100.00;46635.00;5033665;28;20030;-61
2023/08/31 07:33:03;;;;;;;16.17;8.83;;;;;;;-145.18;100.00;46629.13;5024949;28;20501;-61
2023/08/31 07:35:30;;;;;;;15.77;9.33;;;;;;;-145.18;100.00;46633.06;5024746;28;20052;-61
2023/08/31 07:37:55;;;;;;;16.30;8.40;;;;;;;-145.18;100.00;46631.09;5015597;28;20034;-61
2023/08/31 07:40:20;;;;;;;14.33;8.03;;;;;;;-145.18;100.00;46633.06;5036384;28;20499;-61
2023/08/31 07:42:46;;;;;;;14.20;9.00;;;;;;;-145.18;100.00;46635.00;5032750;28;20025;-61
2023/08/31 07:45:11;;;;;;;12.27;8.13;;;;;;;-145.18;100.00;46640.88;5032817;28;20120;-61
2023/08/31 07:47:36;;;;;;;10.27;7.47;;;;;;;-145.18;100.00;46644.78;5020497;28;20041;-61
2023/08/31 07:50:03;;;;;;;13.10;7.03;;;;;;;-145.18;100.00;46644.78;5033902;28;20041;-61
2023/08/31 07:52:28;;;;;;;13.03;7.53;;;;;;;-145.18;100.00;46650.63;5032861;28;20444;-61
2023/08/31 07:54:54;;;;;;;12.33;7.50;;;;;;;-145.18;100.00;46644.78;5036384;28;20087;-61
2023/08/31 07:57:19;;;;;;;12.37;6.60;;;;;;;-145.18;100.00;46648.69;5033693;28;20025;-61
2023/08/31 07:59:45;;;;;;;11.67;7.00;;;;;;;-145.18;100.00;46658.44;5039455;28;20033;-61
2023/08/31 08:02:10;;;;;;;12.60;6.47;;;;;;;-145.18;100.00;46652.59;5035348;28;20103;-62
2023/08/31 08:04:36;;;;;;;12.70;6.10;;;;;;;-145.18;100.00;46662.34;5033175;28;20029;-61
2023/08/31 08:07:03;;;;;;;9.67;5.67;;;;;;;-145.18;100.00;46664.31;5032516;28;20085;-61
2023/08/31 08:09:29;;;;;;;9.43;5.33;;;;;;;-145.18;100.00;46662.34;5031416;28;20567;-61
2023/08/31 08:11:55;;;;;;;10.73;6.77;;;;;;;-145.18;100.00;46656.50;5030956;28;20028;-61
2023/08/31 08:14:20;;;;;;;10.80;6.30;;;;;;;-145.18;100.00;46670.16;5032612;28;20400;-61
2023/08/31 08:16:46;;;;;;;11.37;6.83;;;;;;;-145.18;100.00;46666.25;5039837;28;20032;-61
2023/08/31 08:19:11;;;;;;;11.07;5.63;;;;;;;-145.18;100.00;46670.16;5026324;28;20067;-61
2023/08/31 08:21:37;;;;;;;10.83;5.87;;;;;;;-145.18;100.00;46670.16;5028273;28;20034;-62
2023/08/31 08:24:02;;;;;;;16.10;6.53;;;;;;;-145.18;100.00;46666.25;5028720;28;20025;-70
2023/08/31 08:26:28;;;;;;;11.23;6.53;;;;;;;-145.18;100.00;46668.22;5023033;28;20032;-69
2023/08/31 08:28:53;;;;;;;15.60;6.80;;;;;;;-145.18;100.00;46674.06;5033141;28;20397;-70
2023/08/31 08:31:19;;;;;;;11.67;5.70;;;;;;;-145.18;100.00;46670.16;5034318;28;20493;-69
2023/08/31 08:33:44;;;;;;;8.57;4.93;;;;;;;-145.18;100.00;46677.97;5025249;28;20079;-70
2023/08/31 08:36:09;;;;;;;9.40;5.40;;;;;;;-145.18;100.00;46677.97;5018964;28;20388;-69
2023/08/31 08:38:35;;;;;;;9.77;4.93;;;;;;;-145.18;100.00;46679.94;5024430;28;20413;-69
2023/08/31 08:41:07;;;;;;;7.83;5.23;;;;;;;-145.18;100.00;46681.88;5029114;28;20034;-69
2023/08/31 08:43:34;;;;;;;12.27;5.43;;;;;;;-145.18;100.00;46681.88;5019573;28;20029;-71
2023/08/31 08:46:05;;;;;;;8.63;4.93;;;;;;;-145.18;100.00;46683.84;5025973;28;20038;-69
2023/08/31 08:48:34;;;;;;;9.83;5.17;;;;;;;-145.18;100.00;46681.88;5026310;28;20029;-69
2023/08/31 08:51:00;;;;;;;10.70;4.87;;;;;;;-145.18;100.00;46685.78;5028986;28;20508;-69
2023/08/31 08:53:25;;;;;;;9.50;5.67;;;;;;;-145.18;100.00;46691.66;5032042;28;20026;-70
2023/08/31 08:55:51;;;;;;;6.97;4.60;;;;;;;-145.18;100.00;46687.75;5038544;28;20115;-70
2023/08/31 08:58:16;;;;;;;12.87;5.33;;;;;;;-145.18;100.00;46693.59;5037805;28;20030;-69
2023/08/31 09:00:42;;;;;;;17.67;5.23;;;;;;;-145.18;100.00;46689.69;5017545;28;20072;-69
2023/08/31 09:03:08;;;;;;;7.93;4.80;;;;;;;-145.18;100.00;46691.66;5024953;28;20079;-69
2023/08/31 09:05:33;;;;;;;9.60;4.60;;;;;;;-145.18;100.00;46693.59;5027576;28;20029;-69
2023/08/31 09:08:10;;;;;;;7.93;4.60;;;;;;;-145.18;100.00;46689.69;5023807;28;20509;-69
2023/08/31 09:10:45;;;;;;;7.20;4.90;;;;;;;-145.18;100.00;46693.59;5020526;28;20381;-69
2023/08/31 09:13:15;;;;;;;15.10;5.25;;;;;;;-145.18;100.00;46685.78;5021973;28;20025;-69
2023/08/31 09:15:47;;;;;;;10.40;4.67;;;;;;;-145.18;100.00;46662.34;5027160;28;20025;-69
2023/08/31 09:18:24;;;;;;;7.00;3.83;;;;;;;-145.18;100.00;46582.25;5027153;28;20109;-69
2023/08/31 09:20:49;;;;;;;6.43;3.50;;;;;;;-145.18;100.00;46580.31;5022807;28;20053;-69
2023/08/31 09:23:15;;;;;;;14.00;4.30;;;;;;;-145.18;100.00;46570.53;5026897;28;20482;-69
2023/08/31 09:25:49;;;;;;;6.50;4.60;;;;;;;-145.18;100.00;46570.53;5025223;28;20080;-69
2023/08/31 09:28:26;;;;;;;10.10;4.60;;;;;;;-145.18;100.00;46566.63;5026502;28;20020;-69
2023/08/31 09:30:53;;;;;;;7.93;4.63;;;;;;;-145.18;100.00;46564.69;5029792;28;20059;-69
2023/08/31 09:33:20;;;;;;;9.83;3.83;;;;;;;-145.18;100.00;46564.69;5025245;28;20025;-62
2023/08/31 09:35:55;;;;;;;7.20;4.20;;;;;;;-145.18;100.00;46570.53;5029166;28;20029;-62
2023/08/31 09:38:20;;;;;;;14.35;5.20;;;;;;;-145.18;100.00;46592.03;5024605;28;20385;-60
2023/08/31 09:40:46;;;;;;;9.90;4.37;;;;;;;-145.18;100.00;46640.88;5030332;28;20030;-62
2023/08/31 09:43:11;;;;;;;7.67;3.90;;;;;;;-145.18;100.00;46670.16;5025660;28;20021;-62
2023/08/31 09:45:38;;;;;;;7.47;3.10;;;;;;;-145.18;100.00;46609.59;5028282;28;20079;-62
2023/08/31 09:48:04;;;;;;;6.23;2.90;;;;;;;-145.18;100.00;46572.50;5012656;28;20445;-62
2023/08/31 09:50:33;;;;;;;6.30;3.10;;;;;;;-145.18;100.00;46566.63;5023037;28;20497;-62
2023/08/31 09:53:03;;;;;;;5.20;3.67;;;;;;;-145.18;100.00;46580.31;5024932;28;20113;-62
2023/08/31 09:55:30;;;;;;;5.93;2.30;;;;;;;-145.18;100.00;46580.31;5013654;28;20046;-62
2023/08/31 09:57:57;;;;;;;5.57;2.30;;;;;;;-145.18;100.00;46593.97;5019711;28;20091;-62
2023/08/31 10:00:25;;;;;;;8.03;2.40;;;;;;;-145.18;100.00;46685.78;5031445;28;20104;-62
2023/08/31 10:02:53;;;;;;;8.47;3.00;;;;;;;-145.18;100.00;46697.50;5031482;28;20400;-62
2023/08/31 10:05:20;;;;;;;7.20;3.10;;;;;;;-145.18;100.00;46695.56;5016332;28;20087;-62
2023/08/31 10:07:45;;;;;;;5.80;2.37;;;;;;;-145.18;100.00;46687.75;5025831;28;20076;-61
2023/08/31 10:10:12;;;;;;;6.63;2.70;;;;;;;-145.18;100.00;46685.78;5017221;28;20026;-62
2023/08/31 10:12:38;;;;;;;8.17;3.20;;;;;;;-145.18;100.00;46685.78;5012485;28;20026;-62
2023/08/31 10:15:05;;;;;;;9.37;2.80;;;;;;;-145.18;100.00;46685.78;5028613;28;20057;-62
2023/08/31 10:17:31;;;;;;;6.70;2.90;;;;;;;-145.18;100.00;46679.94;5034801;28;20031;-62
2023/08/31 10:19:57;;;;;;;7.17;2.50;;;;;;;-145.18;100.00;46679.94;5031677;28;20021;-62
2023/08/31 10:22:22;;;;;;;6.33;2.70;;;;;;;-145.18;100.00;46674.06;5029962;28;20021;-61
2023/08/31 10:25:03;;;;;;;8.33;1.83;;;;;;;-145.18;100.00;46676.03;5027753;28;20037;-62
2023/08/31 10:27:36;;;;;;;5.53;2.63;;;;;;;-145.18;100.00;46672.13;5025453;28;20116;-62
2023/08/31 10:30:20;;;;;;;4.90;1.73;;;;;;;-145.18;100.00;46676.03;5019112;28;20369;-62
2023/08/31 10:32:47;;;;;;;3.13;1.97;;;;;;;-145.18;100.00;46676.03;5033343;28;20397;-62
2023/08/31 10:35:12;;;;;;;3.27;1.80;;;;;;;-145.18;100.00;46674.06;5035793;28;20091;-62
2023/08/31 10:37:40;;;;;;;2.63;1.53;;;;;;;-145.18;100.00;46679.94;5027347;28;20429;-62
2023/08/31 10:40:08;;;;;;;4.50;1.50;;;;;;;-145.18;100.00;46677.97;5024758;28;20070;-63
2023/08/31 10:42:40;;;;;;;3.30;1.50;;;;;;;-145.18;100.00;46677.97;5031340;28;20029;-70
2023/08/31 10:45:06;;;;;;;6.07;1.60;;;;;;;-145.18;100.00;46681.88;5034165;28;20446;-70
2023/08/31 10:47:40;;;;;;;4.57;1.57;;;;;;;-145.18;100.00;46677.97;5021234;28;20029;-70
2023/08/31 10:50:22;;;;;;;5.67;1.93;;;;;;;-145.18;100.00;46681.88;5031375;28;20025;-69
2023/08/31 10:52:47;;;;;;;1.90;1.00;;;;;;;-145.18;100.00;46685.78;5026243;28;20030;-70
2023/08/31 10:55:13;;;;;;;2.00;1.13;;;;;;;-145.18;100.00;46691.66;5018447;28;20037;-70
2023/08/31 10:57:40;;;;;;;3.93;1.30;;;;;;;-145.18;100.00;46689.69;5026382;28;20029;-70